Time;durP1;ratioP1;P1;durP2;ratioP2;P2;SDS_P1;SDS_P2;PMS_P1;PMS_P2;Temp;Humidity;BMP_temperature;BMP_pressure;BME280_temperature;BME280_humidity;BME280_pressure;Samples;Min_cycle;Max_cycle;Signal;HPM_P1;HPM_P2
2021/09/04 00:00:34;;;;;;;10.45;4.07;;;16.40;99.90;;;;;;6133198;23;20184;-86
2021/09/04 00:03:03;;;;;;;8.57;4.07;;;16.40;99.90;;;;;;6135565;23;20180;-87
2021/09/04 00:05:33;;;;;;;7.10;3.13;;;16.40;99.90;;;;;;6134011;23;20181;-87
2021/09/04 00:08:00;;;;;;;6.88;3.90;;;16.40;99.90;;;;;;6134199;23;20188;-86
2021/09/04 00:10:28;;;;;;;9.30;4.70;;;16.40;99.90;;;;;;6136155;23;20191;-86
2021/09/04 00:12:55;;;;;;;5.82;3.95;;;16.40;99.90;;;;;;6138706;23;20178;-86
2021/09/04 00:15:26;;;;;;;10.85;3.70;;;16.50;99.90;;;;;;6143440;23;20177;-85
2021/09/04 00:17:53;;;;;;;11.10;3.95;;;16.40;99.90;;;;;;6142347;23;20206;-86
2021/09/04 00:24:14;;;;;;;8.23;4.25;;;16.50;99.90;;;;;;6139559;23;20183;-85
2021/09/04 00:29:57;;;;;;;8.20;3.25;;;16.40;99.90;;;;;;6133497;23;20207;-84
2021/09/04 00:32:46;;;;;;;4.05;3.17;;;16.40;99.90;;;;;;6123757;23;20236;-85
2021/09/04 00:35:20;;;;;;;5.80;3.13;;;16.20;99.90;;;;;;6142412;23;20185;-85
2021/09/04 00:37:50;;;;;;;5.30;3.00;;;16.30;99.90;;;;;;6141788;23;20203;-86
2021/09/04 09:03:55;;;;;;;15.60;6.80;;;22.20;95.40;;;;;;6184742;23;20500;-85
2021/09/04 09:06:27;;;;;;;11.60;7.07;;;22.50;94.70;;;;;;6198727;23;20498;-89
2021/09/04 09:08:58;;;;;;;10.43;7.70;;;22.60;94.30;;;;;;6162894;23;20431;-88
2021/09/04 09:11:29;;;;;;;13.90;7.80;;;23.20;94.10;;;;;;6164688;23;20882;-85
2021/09/04 09:13:57;;;;;;;9.80;6.73;;;24.40;91.60;;;;;;6164305;23;20443;-87
2021/09/04 09:16:25;;;;;;;12.07;7.53;;;26.00;90.20;;;;;;6162173;23;20408;-87
2021/09/04 09:19:01;;;;;;;11.80;8.27;;;26.40;86.80;;;;;;6162553;23;20463;-88
2021/09/04 09:21:31;;;;;;;14.30;8.93;;;25.80;86.70;;;;;;6165819;23;20416;-87
2021/09/04 09:27:26;;;;;;;14.20;9.17;;;24.50;90.40;;;;;;6041785;23;20825;-86
2021/09/04 09:29:53;;;;;;;15.47;9.13;;;24.00;90.90;;;;;;6167689;23;20427;-86
2021/09/04 09:32:21;;;;;;;14.17;9.30;;;23.70;91.10;;;;;;6166290;23;20531;-86
2021/09/04 09:34:55;;;;;;;13.80;9.40;;;23.50;91.30;;;;;;6168627;23;20408;-87
2021/09/04 09:43:16;;;;;;;14.93;7.87;;;23.00;92.30;;;;;;6140517;23;20397;-86
2021/09/04 09:48:59;;;;;;;11.07;8.00;;;23.40;92.20;;;;;;6154266;23;20485;-88
2021/09/04 09:54:49;;;;;;;12.50;9.27;;;23.00;91.70;;;;;;6132267;23;20476;-87
2021/09/04 10:03:19;;;;;;;13.40;7.50;;;22.70;94.50;;;;;;6134654;23;20408;-85
2021/09/04 10:05:47;;;;;;;13.70;8.23;;;22.50;93.90;;;;;;6143509;23;20420;-86
2021/09/04 10:08:17;;;;;;;13.80;7.87;;;22.30;93.90;;;;;;6147365;23;20439;-86
2021/09/04 10:10:45;;;;;;;12.67;8.93;;;22.40;93.10;;;;;;6147945;23;20419;-86
2021/09/04 10:13:13;;;;;;;12.57;7.00;;;22.50;92.90;;;;;;6146523;23;20744;-84
2021/09/04 10:15:43;;;;;;;12.83;6.23;;;22.60;92.60;;;;;;6147841;23;20460;-86
2021/09/04 10:18:12;;;;;;;12.47;6.83;;;22.60;92.60;;;;;;6147847;23;20464;-86
2021/09/04 10:20:45;;;;;;;10.40;6.73;;;22.80;92.10;;;;;;6137111;23;20420;-86
2021/09/04 10:26:26;;;;;;;11.33;7.37;;;22.90;92.30;;;;;;6136808;23;20553;-86
2021/09/04 10:28:57;;;;;;;10.07;6.37;;;22.70;92.50;;;;;;6137668;23;20448;-86
2021/09/04 10:31:48;;;;;;;9.67;7.30;;;22.70;92.50;;;;;;6137443;23;20686;-86
2021/09/04 10:34:16;;;;;;;7.90;5.80;;;22.80;93.40;;;;;;6136378;23;20459;-85
2021/09/04 10:37:01;;;;;;;12.67;8.00;;;22.70;92.70;;;;;;6140963;23;20494;-86
2021/09/04 10:39:49;;;;;;;13.07;6.93;;;22.90;92.90;;;;;;6135987;23;20403;-85
2021/09/04 10:42:18;;;;;;;12.10;7.63;;;23.30;91.30;;;;;;6135833;23;20384;-86
2021/09/04 10:44:46;;;;;;;11.60;6.90;;;23.70;91.20;;;;;;6133532;23;20437;-86
2021/09/04 10:47:13;;;;;;;13.47;7.07;;;24.00;90.90;;;;;;6133885;23;20941;-85
2021/09/04 10:49:42;;;;;;;10.97;6.87;;;24.20;90.00;;;;;;6134170;23;20449;-85
2021/09/04 10:52:10;;;;;;;9.77;6.37;;;24.20;89.90;;;;;;6133401;23;20413;-86
2021/09/04 10:55:02;;;;;;;12.10;7.67;;;24.60;89.30;;;;;;6134211;23;20441;-86
2021/09/04 10:57:46;;;;;;;11.43;7.73;;;24.90;88.50;;;;;;6133619;23;20441;-85
2021/09/04 11:00:22;;;;;;;14.10;6.60;;;25.80;88.70;;;;;;6131589;23;20378;-86
2021/09/04 11:02:51;;;;;;;13.47;7.63;;;26.00;82.90;;;;;;6132116;23;20433;-85
2021/09/04 11:05:49;;;;;;;8.90;6.20;;;25.70;84.30;;;;;;6131391;23;21215;-86
2021/09/04 11:08:38;;;;;;;7.60;6.77;;;25.40;84.60;;;;;;6133384;23;20512;-85
2021/09/04 11:11:17;;;;;;;8.93;7.73;;;25.60;84.70;;;;;;6132951;23;20821;-85
2021/09/04 11:13:47;;;;;;;10.70;7.20;;;25.50;84.70;;;;;;6133380;23;20443;-85
2021/09/04 11:16:36;;;;;;;10.40;6.80;;;25.10;85.20;;;;;;6132943;23;21046;-85
2021/09/04 11:19:09;;;;;;;9.33;5.93;;;24.90;85.70;;;;;;6132499;23;20439;-86
2021/09/04 11:21:45;;;;;;;9.70;7.20;;;24.80;85.30;;;;;;6133384;23;20441;-85
2021/09/04 11:24:13;;;;;;;9.50;7.10;;;24.70;85.80;;;;;;6134526;23;20443;-85
2021/09/04 11:26:51;;;;;;;9.40;7.23;;;24.70;85.60;;;;;;6132764;23;20417;-86
2021/09/04 11:29:20;;;;;;;17.93;8.30;;;24.70;85.90;;;;;;6134828;23;20509;-86
2021/09/04 11:31:53;;;;;;;9.87;7.13;;;24.60;86.00;;;;;;6138037;23;20452;-86
2021/09/04 11:34:37;;;;;;;14.70;8.03;;;24.40;87.80;;;;;;6136720;23;20433;-85
2021/09/04 11:37:18;;;;;;;11.00;7.20;;;24.30;88.90;;;;;;6136460;23;20433;-86
2021/09/04 11:39:46;;;;;;;12.10;7.40;;;24.40;89.40;;;;;;6137732;23;20436;-87
2021/09/04 11:42:14;;;;;;;13.67;8.70;;;24.40;87.50;;;;;;6138408;23;20409;-86
2021/09/04 11:44:51;;;;;;;11.20;7.60;;;24.20;87.50;;;;;;6137893;23;20874;-86
2021/09/04 11:47:20;;;;;;;9.10;6.73;;;23.80;89.00;;;;;;6134783;23;20417;-86
2021/09/04 11:49:49;;;;;;;7.97;6.33;;;23.70;89.30;;;;;;6136307;23;20900;-86
2021/09/04 11:52:21;;;;;;;10.97;7.37;;;24.00;89.10;;;;;;6138182;23;20448;-87
2021/09/04 11:54:49;;;;;;;7.47;6.63;;;24.50;87.80;;;;;;6139537;23;20418;-85
2021/09/04 11:57:29;;;;;;;8.67;6.83;;;25.00;86.30;;;;;;6142359;23;20433;-89
2021/09/04 12:00:02;;;;;;;7.73;6.27;;;25.40;84.10;;;;;;6139379;23;20417;-86
2021/09/04 12:02:30;;;;;;;9.97;7.13;;;25.40;85.50;;;;;;6140642;23;20468;-86
2021/09/04 12:05:02;;;;;;;9.90;6.73;;;25.30;85.80;;;;;;6143988;23;20837;-85
2021/09/04 12:07:29;;;;;;;10.43;6.97;;;25.00;87.30;;;;;;6146901;23;20417;-85
2021/09/04 12:09:59;;;;;;;11.40;7.20;;;24.80;87.70;;;;;;6144754;23;20409;-85
2021/09/04 12:12:28;;;;;;;10.13;7.07;;;24.40;87.00;;;;;;6144555;23;20408;-86
2021/09/04 12:14:56;;;;;;;10.43;6.77;;;24.20;87.70;;;;;;6145418;23;20441;-85
2021/09/04 12:17:50;;;;;;;13.90;6.53;;;24.20;87.40;;;;;;6139708;23;20453;-85
2021/09/04 12:20:18;;;;;;;8.50;6.60;;;24.00;85.90;;;;;;6139767;23;20470;-86
2021/09/04 12:22:45;;;;;;;12.73;6.47;;;23.80;85.50;;;;;;6136165;23;20410;-84
2021/09/04 12:25:25;;;;;;;15.60;7.53;;;23.90;86.60;;;;;;6136094;23;20907;-86
2021/09/04 12:27:59;;;;;;;7.87;6.30;;;23.70;88.60;;;;;;6135789;23;20777;-85
2021/09/04 12:30:27;;;;;;;9.40;5.83;;;23.90;86.60;;;;;;6135382;23;20416;-86
2021/09/04 12:33:05;;;;;;;10.40;6.80;;;23.80;87.80;;;;;;6134751;23;20420;-85
2021/09/04 12:35:51;;;;;;;6.97;6.00;;;23.90;87.40;;;;;;6135393;23;20500;-85
2021/09/04 12:38:19;;;;;;;9.77;5.57;;;23.80;87.60;;;;;;6137587;23;20425;-86
2021/09/04 12:41:13;;;;;;;11.60;7.03;;;23.80;87.90;;;;;;6138523;23;20406;-86
2021/09/04 12:44:00;;;;;;;15.60;6.60;;;23.50;87.40;;;;;;6133991;23;20777;-87
2021/09/04 12:46:33;;;;;;;10.97;5.47;;;23.40;87.60;;;;;;6138988;23;20475;-85
2021/09/04 12:49:19;;;;;;;8.90;5.63;;;23.50;85.80;;;;;;6138355;23;20397;-84
2021/09/04 12:51:47;;;;;;;8.30;5.80;;;23.20;86.20;;;;;;6138714;23;20402;-84
2021/09/04 12:54:14;;;;;;;12.40;5.70;;;22.90;87.50;;;;;;6138154;23;20467;-85
2021/09/04 12:56:46;;;;;;;9.97;5.40;;;22.80;87.60;;;;;;6136563;23;20407;-85
2021/09/04 12:59:13;;;;;;;10.00;5.70;;;22.70;89.30;;;;;;6137758;23;20472;-87
2021/09/04 13:01:41;;;;;;;11.37;6.27;;;22.60;90.60;;;;;;6136441;23;20414;-87
2021/09/04 13:04:10;;;;;;;9.63;7.10;;;22.70;90.60;;;;;;6133958;23;20437;-88
2021/09/04 13:06:37;;;;;;;7.70;6.20;;;22.90;89.60;;;;;;6133842;23;20394;-85
2021/09/04 13:11:47;;;;;;;10.20;5.43;;;23.20;89.80;;;;;;6129586;23;20943;-85
2021/09/04 13:14:14;;;;;;;11.80;6.90;;;23.00;89.50;;;;;;6133582;23;20948;-84
2021/09/04 13:16:42;;;;;;;7.50;6.37;;;23.10;89.40;;;;;;6131644;23;20439;-86
2021/09/04 13:19:10;;;;;;;11.60;5.90;;;23.10;90.00;;;;;;6132694;23;20866;-86
2021/09/04 13:21:37;;;;;;;9.13;6.30;;;23.20;89.50;;;;;;6134087;23;20405;-85
2021/09/04 13:24:07;;;;;;;7.57;5.57;;;23.30;88.70;;;;;;6134659;23;20713;-85
2021/09/04 13:26:35;;;;;;;10.20;6.00;;;23.40;87.90;;;;;;6131672;23;20916;-85
2021/09/04 13:29:07;;;;;;;7.40;6.00;;;23.50;89.50;;;;;;6134734;23;20417;-86
2021/09/04 13:31:34;;;;;;;9.90;6.20;;;23.50;88.40;;;;;;6132679;23;20421;-85
2021/09/04 13:34:04;;;;;;;9.17;5.63;;;23.50;90.10;;;;;;6134084;23;20437;-85
2021/09/04 13:36:32;;;;;;;8.87;6.40;;;23.50;87.90;;;;;;6134875;23;20529;-85
2021/09/04 13:39:00;;;;;;;12.63;6.33;;;23.30;89.90;;;;;;6135954;23;20423;-85
2021/09/04 13:41:27;;;;;;;9.53;6.50;;;23.20;89.50;;;;;;6134607;23;20409;-86
2021/09/04 13:43:54;;;;;;;9.87;5.93;;;23.00;90.30;;;;;;6134963;23;20402;-85
2021/09/04 13:46:21;;;;;;;7.83;5.70;;;22.90;90.80;;;;;;6137858;23;20790;-86
2021/09/04 13:48:48;;;;;;;8.73;6.13;;;23.00;90.70;;;;;;6132467;23;20425;-84
2021/09/04 13:51:15;;;;;;;8.90;5.83;;;23.30;90.10;;;;;;6133864;23;20416;-85
2021/09/04 13:53:44;;;;;;;8.50;6.50;;;23.40;89.10;;;;;;6135171;23;20457;-85
2021/09/04 13:56:11;;;;;;;16.07;6.03;;;23.50;88.70;;;;;;6134779;23;20417;-85
2021/09/04 13:58:38;;;;;;;7.30;5.87;;;23.40;90.30;;;;;;6135991;23;20429;-85
2021/09/04 14:01:06;;;;;;;8.70;6.37;;;23.20;89.70;;;;;;6136624;23;20857;-85
2021/09/04 14:03:33;;;;;;;9.07;5.43;;;23.10;90.30;;;;;;6142665;23;20413;-87
2021/09/04 14:06:00;;;;;;;10.33;6.33;;;22.80;90.70;;;;;;6143709;23;20413;-85
2021/09/04 14:08:27;;;;;;;9.73;5.80;;;22.60;91.00;;;;;;6138203;23;20414;-85
2021/09/04 14:10:56;;;;;;;7.90;5.43;;;22.30;91.60;;;;;;6136973;23;20420;-85
2021/09/04 14:13:23;;;;;;;9.77;6.37;;;22.20;91.40;;;;;;6135983;23;20437;-85
2021/09/04 14:15:50;;;;;;;10.60;6.07;;;22.20;91.40;;;;;;6135557;23;20412;-86
2021/09/04 14:18:18;;;;;;;12.37;5.00;;;22.20;91.60;;;;;;6135028;23;20429;-85
2021/09/04 14:20:45;;;;;;;8.50;5.97;;;22.20;91.70;;;;;;6135269;23;20417;-85
2021/09/04 14:23:12;;;;;;;8.47;5.87;;;22.30;90.80;;;;;;6133731;23;20421;-85
2021/09/04 14:25:40;;;;;;;10.10;6.10;;;22.30;90.70;;;;;;6135241;23;20420;-86
2021/09/04 14:28:09;;;;;;;12.20;5.37;;;22.30;90.80;;;;;;6134026;23;20920;-86
2021/09/04 14:30:37;;;;;;;8.37;5.17;;;22.40;91.20;;;;;;6134854;23;20444;-86
2021/09/04 14:33:04;;;;;;;9.17;6.20;;;22.50;91.10;;;;;;6136105;23;20807;-86
2021/09/04 14:35:31;;;;;;;8.20;5.23;;;22.70;90.50;;;;;;6135112;23;20457;-85
2021/09/04 14:38:01;;;;;;;5.97;4.77;;;22.80;90.90;;;;;;6134647;23;20429;-85
2021/09/04 14:40:29;;;;;;;10.63;4.97;;;23.00;90.90;;;;;;6134538;23;20438;-87
2021/09/04 14:42:56;;;;;;;8.43;5.43;;;23.10;90.10;;;;;;6135553;23;20416;-86
2021/09/04 14:45:25;;;;;;;6.53;4.90;;;23.20;90.80;;;;;;6137864;23;20421;-88
2021/09/04 14:47:53;;;;;;;7.50;5.27;;;23.20;90.20;;;;;;6138245;23;20460;-85
2021/09/04 14:50:21;;;;;;;6.70;5.27;;;23.10;90.00;;;;;;6137824;23;20419;-86
2021/09/04 14:52:48;;;;;;;10.10;6.30;;;22.90;90.10;;;;;;6138414;23;20416;-85
2021/09/04 14:55:15;;;;;;;9.10;4.80;;;22.80;90.40;;;;;;6138055;23;20461;-87
2021/09/04 14:57:43;;;;;;;10.10;5.60;;;22.70;89.90;;;;;;6137942;23;20524;-85
2021/09/04 15:00:57;;;;;;;9.10;4.77;;;22.60;90.50;;;;;;6133390;23;20473;-87
2021/09/04 15:03:25;;;;;;;10.00;5.97;;;22.60;90.20;;;;;;6109553;23;20761;-86
2021/09/04 15:05:52;;;;;;;8.33;5.23;;;22.50;90.40;;;;;;6135556;23;20401;-87
2021/09/04 15:08:19;;;;;;;8.60;5.27;;;22.30;90.30;;;;;;6134368;23;20425;-86
2021/09/04 15:10:46;;;;;;;9.53;5.40;;;22.00;90.80;;;;;;6135613;23;20420;-87
2021/09/04 15:13:14;;;;;;;6.40;5.30;;;21.80;91.40;;;;;;6134790;23;20428;-87
2021/09/04 15:15:41;;;;;;;9.70;5.30;;;21.60;91.50;;;;;;6136146;23;20790;-86
2021/09/04 15:18:08;;;;;;;7.70;5.20;;;21.60;92.20;;;;;;6135289;23;20528;-86
2021/09/04 15:20:37;;;;;;;9.00;5.77;;;21.60;92.30;;;;;;6136608;23;20398;-86
2021/09/04 15:23:10;;;;;;;8.67;5.40;;;21.60;91.90;;;;;;6141721;23;20420;-88
2021/09/04 15:25:39;;;;;;;7.43;5.00;;;21.60;91.40;;;;;;6142018;23;20401;-84
2021/09/04 15:28:06;;;;;;;10.10;5.77;;;21.70;91.70;;;;;;6139928;23;21070;-85
2021/09/04 15:30:33;;;;;;;8.77;5.83;;;21.80;92.40;;;;;;6139530;23;20413;-86
2021/09/04 15:33:01;;;;;;;9.30;5.40;;;21.90;91.90;;;;;;6138338;23;20446;-86
2021/09/04 15:35:28;;;;;;;8.70;5.87;;;21.90;91.80;;;;;;6139185;23;20463;-85
2021/09/04 15:37:56;;;;;;;7.00;4.87;;;22.10;92.40;;;;;;6139289;23;20426;-85
2021/09/04 15:40:23;;;;;;;10.43;6.63;;;22.30;92.10;;;;;;6139008;23;20417;-86
2021/09/04 15:42:51;;;;;;;9.63;5.20;;;22.50;91.50;;;;;;6139312;23;20433;-84
2021/09/04 15:45:18;;;;;;;14.23;6.23;;;22.70;91.30;;;;;;6140502;23;20413;-86
2021/09/04 15:47:45;;;;;;;8.43;5.17;;;22.90;91.10;;;;;;6146827;23;20425;-87
2021/09/04 15:50:13;;;;;;;7.33;5.87;;;23.10;91.10;;;;;;6139637;23;20421;-87
2021/09/04 15:52:40;;;;;;;9.03;5.30;;;23.10;91.50;;;;;;6138682;23;20440;-87
2021/09/04 15:55:10;;;;;;;7.83;5.80;;;23.00;91.70;;;;;;6137771;23;20473;-86
2021/09/04 15:57:37;;;;;;;9.60;6.27;;;22.90;91.80;;;;;;6139291;23;20996;-86
2021/09/04 16:00:06;;;;;;;5.83;4.80;;;22.70;92.20;;;;;;6138910;23;20765;-86
2021/09/04 16:02:35;;;;;;;11.37;6.50;;;22.60;92.90;;;;;;6142353;23;20932;-86
2021/09/04 16:05:03;;;;;;;9.03;6.30;;;22.50;92.70;;;;;;6145369;23;20438;-86
2021/09/04 16:07:30;;;;;;;8.90;5.20;;;22.50;92.50;;;;;;6143695;23;20444;-87
2021/09/04 16:09:58;;;;;;;12.93;5.40;;;22.40;92.60;;;;;;6145732;23;20409;-88
2021/09/04 16:12:26;;;;;;;8.40;6.90;;;22.30;92.60;;;;;;6141240;23;20404;-86
2021/09/04 16:14:53;;;;;;;15.17;7.40;;;22.10;93.10;;;;;;6136416;23;20451;-86
2021/09/04 16:17:22;;;;;;;9.87;5.70;;;21.90;93.50;;;;;;6138137;23;20421;-84
2021/09/04 16:19:49;;;;;;;11.73;6.07;;;21.80;94.00;;;;;;6136129;23;20444;-85
2021/09/04 16:22:17;;;;;;;10.80;6.60;;;21.80;94.30;;;;;;6142950;23;20417;-87
2021/09/04 16:24:44;;;;;;;9.10;7.03;;;21.70;94.40;;;;;;6151306;23;20408;-88
2021/09/04 16:27:20;;;;;;;11.97;6.30;;;21.60;94.80;;;;;;6151423;23;20448;-88
2021/09/04 16:29:48;;;;;;;9.10;5.30;;;21.70;94.60;;;;;;6152426;23;20426;-88
2021/09/04 16:32:15;;;;;;;9.43;5.63;;;21.60;94.70;;;;;;6145295;23;20412;-84
2021/09/04 16:34:43;;;;;;;9.43;6.63;;;21.50;95.20;;;;;;6143165;23;20766;-84
2021/09/04 16:37:10;;;;;;;13.00;6.10;;;21.50;95.60;;;;;;6143422;23;20438;-84
2021/09/04 16:39:37;;;;;;;10.53;6.67;;;21.50;95.60;;;;;;6141571;23;20412;-85
2021/09/04 16:42:08;;;;;;;8.63;6.50;;;21.50;95.50;;;;;;6136989;23;20416;-84
2021/09/04 16:44:35;;;;;;;10.47;6.20;;;21.40;95.70;;;;;;6136710;23;20498;-86
2021/09/04 16:47:04;;;;;;;11.70;7.20;;;21.40;96.20;;;;;;6137943;23;20446;-87
2021/09/04 16:49:31;;;;;;;10.10;5.77;;;21.30;96.30;;;;;;6136100;23;20427;-87
2021/09/04 16:52:00;;;;;;;8.03;5.93;;;21.30;96.80;;;;;;6139168;23;20415;-87
2021/09/04 16:54:27;;;;;;;8.70;6.70;;;21.30;96.00;;;;;;6137407;23;20505;-87
2021/09/04 16:56:55;;;;;;;12.27;6.67;;;21.30;95.70;;;;;;6137130;23;20432;-85
2021/09/04 16:59:22;;;;;;;20.30;6.83;;;21.20;95.60;;;;;;6136523;23;20759;-85
2021/09/04 17:01:55;;;;;;;15.93;7.20;;;21.00;96.00;;;;;;6136642;23;20424;-85
2021/09/04 17:04:24;;;;;;;10.90;6.83;;;20.90;96.30;;;;;;6136559;23;20433;-85
2021/09/04 17:06:54;;;;;;;8.20;6.33;;;20.80;96.70;;;;;;6136930;23;20419;-85
2021/09/04 17:09:23;;;;;;;7.20;5.30;;;20.80;96.80;;;;;;6137939;23;20375;-85
2021/09/04 17:11:51;;;;;;;10.57;7.77;;;20.80;96.70;;;;;;6136504;23;20422;-87
2021/09/04 17:14:18;;;;;;;12.80;6.97;;;20.60;97.20;;;;;;6141682;23;20403;-86
2021/09/04 17:16:46;;;;;;;9.93;5.80;;;20.50;96.80;;;;;;6142879;23;20425;-87
2021/09/04 17:19:13;;;;;;;9.63;6.57;;;20.50;97.20;;;;;;6142051;23;20398;-87
2021/09/04 17:21:42;;;;;;;8.37;5.70;;;20.40;97.00;;;;;;6142629;23;20469;-87
2021/09/04 17:24:09;;;;;;;10.03;6.33;;;20.30;97.00;;;;;;6146308;23;20414;-83
2021/09/04 17:26:36;;;;;;;9.63;5.80;;;20.20;97.40;;;;;;6141458;23;20405;-86
2021/09/04 17:29:04;;;;;;;10.20;5.90;;;20.00;98.00;;;;;;6138041;23;20435;-87
2021/09/04 17:31:32;;;;;;;12.70;7.00;;;19.90;98.30;;;;;;6136511;23;20425;-84
2021/09/04 17:33:59;;;;;;;10.70;6.03;;;19.80;99.10;;;;;;6136902;23;20406;-87
2021/09/04 17:36:28;;;;;;;8.57;5.30;;;19.70;98.80;;;;;;6136876;23;20539;-85
2021/09/04 17:38:57;;;;;;;8.17;5.33;;;19.70;98.90;;;;;;6136289;23;20421;-85
2021/09/04 17:41:24;;;;;;;9.83;5.73;;;19.60;99.00;;;;;;6136667;23;20488;-87
2021/09/04 17:43:52;;;;;;;9.07;6.57;;;19.50;99.10;;;;;;6138319;23;20437;-89
2021/09/04 17:46:29;;;;;;;;;;;;;;;;;;;;;
2021/09/04 17:48:57;;;;;;;8.90;6.33;;;19.40;99.70;;;;;;6136479;23;20402;-86
2021/09/04 17:51:28;;;;;;;8.27;5.90;;;19.30;99.80;;;;;;6139070;23;20466;-84
2021/09/04 17:53:57;;;;;;;11.70;6.03;;;19.20;99.90;;;;;;6138639;23;20418;-87
2021/09/04 17:56:33;;;;;;;11.73;6.20;;;19.10;99.90;;;;;;6139619;23;20476;-89
2021/09/04 17:59:01;;;;;;;8.03;5.20;;;19.00;99.90;;;;;;6153136;23;20429;-91
2021/09/04 18:01:37;;;;;;;7.10;5.67;;;19.00;99.90;;;;;;6152870;23;20398;-91
2021/09/04 18:04:04;;;;;;;11.33;7.60;;;19.00;99.90;;;;;;6152611;23;20423;-91
2021/09/04 18:06:32;;;;;;;13.43;7.20;;;18.80;99.90;;;;;;6153245;23;20552;-89
2021/09/04 18:09:14;;;;;;;12.50;7.00;;;18.80;99.90;;;;;;6153209;23;20408;-87
2021/09/04 18:11:41;;;;;;;11.60;7.30;;;18.70;99.90;;;;;;6152848;23;20492;-89
2021/09/04 18:14:09;;;;;;;10.37;7.27;;;18.60;99.90;;;;;;6152607;23;20465;-89
2021/09/04 18:16:36;;;;;;;12.83;7.37;;;18.60;99.90;;;;;;6152860;23;20451;-90
2021/09/04 18:19:03;;;;;;;12.17;7.67;;;18.60;99.90;;;;;;6152999;23;20412;-89
2021/09/04 18:21:31;;;;;;;9.97;7.33;;;18.50;99.90;;;;;;6153492;23;20550;-89
2021/09/04 18:23:59;;;;;;;9.37;6.37;;;18.40;99.90;;;;;;6153615;23;20426;-90
2021/09/04 18:26:29;;;;;;;11.87;7.70;;;18.30;99.90;;;;;;6153065;23;20393;-88
2021/09/04 18:28:56;;;;;;;11.53;7.97;;;18.20;99.90;;;;;;6147729;23;20452;-88
2021/09/04 18:31:25;;;;;;;14.90;8.07;;;18.20;99.90;;;;;;6152912;23;20531;-88
2021/09/04 18:33:52;;;;;;;8.83;7.03;;;18.10;99.90;;;;;;6151712;23;20412;-89
2021/09/04 18:36:20;;;;;;;15.40;9.70;;;18.10;99.90;;;;;;6152907;23;20459;-89
2021/09/04 18:38:47;;;;;;;11.47;8.17;;;18.10;99.90;;;;;;6136528;23;20536;-89
2021/09/04 18:41:14;;;;;;;17.60;12.10;;;18.00;99.90;;;;;;6135155;23;20906;-89
2021/09/04 18:43:43;;;;;;;14.67;10.20;;;18.00;99.90;;;;;;6135074;23;20424;-89
2021/09/04 18:46:10;;;;;;;15.93;10.23;;;17.90;99.90;;;;;;6134690;23;20442;-89
2021/09/04 18:48:37;;;;;;;17.50;8.47;;;17.90;99.90;;;;;;6135081;23;20437;-90
2021/09/04 18:51:05;;;;;;;16.83;9.40;;;17.80;99.90;;;;;;6133772;23;20503;-87
2021/09/04 18:53:32;;;;;;;12.23;8.27;;;17.80;99.90;;;;;;6135312;23;20464;-88
2021/09/04 18:55:59;;;;;;;14.33;10.70;;;17.70;99.90;;;;;;6134999;23;20460;-88
2021/09/04 18:58:26;;;;;;;28.47;19.93;;;17.60;99.90;;;;;;6134408;23;20423;-89
2021/09/04 19:00:55;;;;;;;16.13;11.47;;;17.60;99.90;;;;;;6133444;23;20480;-89
2021/09/04 19:03:25;;;;;;;22.40;15.43;;;17.60;99.90;;;;;;6134171;23;20500;-88
2021/09/04 19:05:53;;;;;;;14.18;9.82;;;17.60;99.90;;;;;;6134656;23;20397;-89
2021/09/04 19:08:21;;;;;;;19.50;10.27;;;17.50;99.90;;;;;;6136566;23;20238;-89
2021/09/04 19:10:48;;;;;;;14.52;9.23;;;17.50;99.90;;;;;;6135820;23;20483;-89
2021/09/04 19:13:16;;;;;;;15.65;9.93;;;17.50;99.90;;;;;;6137314;23;20236;-89
2021/09/04 19:15:43;;;;;;;14.23;10.05;;;17.40;99.90;;;;;;6133977;23;20216;-89
2021/09/04 19:18:12;;;;;;;18.97;13.10;;;17.40;99.90;;;;;;6132980;23;20193;-90
2021/09/04 19:20:40;;;;;;;14.70;10.00;;;17.30;99.90;;;;;;6136767;23;20444;-89
2021/09/04 19:23:07;;;;;;;12.10;8.93;;;17.30;99.90;;;;;;6134713;23;20431;-89
2021/09/04 19:25:35;;;;;;;15.02;9.68;;;17.20;99.90;;;;;;6134059;23;20197;-89
2021/09/04 19:28:03;;;;;;;12.13;8.70;;;17.20;99.90;;;;;;6134779;23;20261;-89
2021/09/04 19:30:30;;;;;;;15.50;11.13;;;17.20;99.90;;;;;;6133647;23;20180;-89
2021/09/04 19:32:57;;;;;;;12.00;9.40;;;17.20;99.90;;;;;;6135642;23;20203;-90
2021/09/04 19:35:26;;;;;;;15.60;10.37;;;17.10;99.90;;;;;;6132829;23;20281;-90
2021/09/04 19:37:53;;;;;;;11.60;9.27;;;17.10;99.90;;;;;;6135397;23;20464;-90
2021/09/04 19:40:20;;;;;;;17.30;11.02;;;17.00;99.90;;;;;;6133926;23;20244;-89
2021/09/04 19:42:48;;;;;;;15.93;10.45;;;17.00;99.90;;;;;;6135200;23;20207;-89
2021/09/04 19:45:15;;;;;;;18.42;12.55;;;17.00;99.90;;;;;;6133218;23;20711;-90
2021/09/04 19:47:43;;;;;;;14.37;11.27;;;16.90;99.90;;;;;;6131984;23;20200;-90
2021/09/04 19:50:11;;;;;;;17.92;11.27;;;16.90;99.90;;;;;;6133696;23;20943;-89
2021/09/04 19:52:40;;;;;;;14.82;8.85;;;16.80;99.90;;;;;;6133685;23;20177;-89
2021/09/04 19:55:08;;;;;;;16.13;11.05;;;16.80;99.90;;;;;;6134275;23;20719;-89
2021/09/04 19:57:35;;;;;;;15.80;11.63;;;16.90;99.90;;;;;;6136384;23;20275;-91
2021/09/04 20:00:03;;;;;;;14.30;9.85;;;16.80;99.90;;;;;;6135602;23;20252;-89
2021/09/04 20:02:30;;;;;;;16.20;9.43;;;16.80;99.90;;;;;;6133846;23;20201;-90
2021/09/04 20:04:57;;;;;;;14.00;9.75;;;16.80;99.90;;;;;;6135769;23;20192;-89
2021/09/04 20:07:25;;;;;;;15.15;10.75;;;16.80;99.90;;;;;;6134958;23;20510;-89
2021/09/04 20:09:54;;;;;;;15.63;10.75;;;16.70;99.90;;;;;;6139016;23;20179;-88
2021/09/04 20:12:21;;;;;;;15.20;9.55;;;16.60;99.90;;;;;;6145736;23;20233;-90
2021/09/04 20:14:48;;;;;;;13.20;10.60;;;16.60;99.90;;;;;;6151042;23;20212;-89
2021/09/04 20:17:17;;;;;;;16.08;9.95;;;16.60;99.90;;;;;;6150688;23;20210;-90
2021/09/04 20:19:45;;;;;;;17.05;11.18;;;16.60;99.90;;;;;;6151047;23;20174;-90
2021/09/04 20:22:12;;;;;;;14.82;11.40;;;16.60;99.90;;;;;;6151282;23;20170;-90
2021/09/04 20:24:39;;;;;;;15.93;10.00;;;16.60;99.90;;;;;;6151265;23;20176;-90
2021/09/04 20:27:08;;;;;;;15.93;10.80;;;16.50;99.90;;;;;;6150952;23;20222;-89
2021/09/04 20:29:38;;;;;;;16.40;10.63;;;16.50;99.90;;;;;;6149778;23;20163;-91
2021/09/04 20:32:06;;;;;;;21.20;12.15;;;16.50;99.90;;;;;;6149573;23;20249;-89
2021/09/04 20:34:33;;;;;;;11.40;9.57;;;16.50;99.90;;;;;;6142495;23;20178;-89
2021/09/04 20:37:10;;;;;;;13.80;10.15;;;16.40;99.90;;;;;;6136393;23;20634;-89
2021/09/04 20:39:37;;;;;;;14.40;11.32;;;16.50;99.90;;;;;;6135268;23;20194;-89
2021/09/04 20:42:04;;;;;;;17.83;11.25;;;16.40;99.90;;;;;;6136751;23;20317;-88
2021/09/04 20:44:34;;;;;;;12.98;11.57;;;16.40;99.90;;;;;;6111647;23;20240;-89
2021/09/04 20:47:04;;;;;;;18.67;11.45;;;16.40;99.90;;;;;;6135539;23;20199;-89
2021/09/04 20:49:33;;;;;;;17.50;11.80;;;16.40;99.90;;;;;;6135747;23;20178;-88
2021/09/04 20:52:00;;;;;;;18.02;11.75;;;16.30;99.90;;;;;;6140432;23;20174;-89
2021/09/04 20:54:28;;;;;;;15.52;11.40;;;16.30;99.90;;;;;;6147929;23;20238;-88
2021/09/04 20:56:58;;;;;;;15.10;10.15;;;16.30;99.90;;;;;;6150568;23;20201;-91
2021/09/04 21:04:40;;;;;;;19.75;11.55;;;16.20;99.90;;;;;;6180590;23;20274;-87
2021/09/04 21:07:07;;;;;;;19.67;13.30;;;16.30;99.90;;;;;;6182285;23;20189;-90
2021/09/04 21:09:44;;;;;;;15.10;11.57;;;16.20;99.90;;;;;;6182615;23;20178;-91
2021/09/04 21:14:57;;;;;;;18.05;13.95;;;16.20;99.90;;;;;;6179268;23;20170;-85
2021/09/04 21:17:33;;;;;;;17.70;14.90;;;16.20;99.90;;;;;;6179409;23;20211;-89
2021/09/04 21:20:02;;;;;;;19.05;13.70;;;16.20;99.90;;;;;;6177018;23;20238;-84
2021/09/04 21:22:29;;;;;;;15.18;12.00;;;16.20;99.90;;;;;;6175053;23;20188;-85
2021/09/04 21:24:56;;;;;;;15.18;12.48;;;16.20;99.90;;;;;;6169766;23;20177;-86
2021/09/04 21:27:23;;;;;;;18.65;13.77;;;16.20;99.90;;;;;;6167672;23;20193;-87
2021/09/04 21:29:51;;;;;;;18.13;13.10;;;16.10;99.90;;;;;;6170846;23;20168;-87
2021/09/04 21:32:18;;;;;;;22.23;14.38;;;16.10;99.90;;;;;;6168197;23;20213;-87
2021/09/04 21:34:45;;;;;;;18.85;11.93;;;16.10;99.90;;;;;;6166119;23;20252;-87
2021/09/04 21:37:15;;;;;;;17.13;12.95;;;16.00;99.90;;;;;;6165853;23;20202;-87
2021/09/04 21:39:45;;;;;;;15.23;13.43;;;16.00;99.90;;;;;;6165382;23;20173;-86
2021/09/04 21:42:12;;;;;;;14.80;13.05;;;16.00;99.90;;;;;;6165103;23;20246;-86
2021/09/04 21:44:40;;;;;;;16.65;12.60;;;15.90;99.90;;;;;;6164045;23;20177;-87
2021/09/04 21:47:07;;;;;;;17.80;13.50;;;15.90;99.90;;;;;;6165252;23;20189;-86
2021/09/04 21:49:34;;;;;;;19.50;13.60;;;15.90;99.90;;;;;;6165872;23;20217;-86
2021/09/04 21:52:02;;;;;;;21.48;14.38;;;15.80;99.90;;;;;;6165531;23;20185;-88
2021/09/04 21:54:30;;;;;;;17.88;13.50;;;15.80;99.90;;;;;;6163806;23;20170;-86
2021/09/04 21:56:57;;;;;;;16.95;15.02;;;15.70;99.90;;;;;;6164792;23;20211;-86
2021/09/04 21:59:24;;;;;;;21.70;15.15;;;15.70;99.90;;;;;;6163858;23;20184;-84